Time;durP1;ratioP1;P1;durP2;ratioP2;P2;SDS_P1;SDS_P2;PMS_P1;PMS_P2;Temp;Humidity;BMP_temperature;BMP_pressure;BME280_temperature;BME280_humidity;BME280_pressure;Samples;Min_cycle;Max_cycle;Signal;HPM_P1;HPM_P2
2022/01/25 00:09:21;;;;;;;;;;;;;;;;;;4966498;28;19925;-61
2022/01/25 00:28:17;;;;;;;;;;;;;;;;;;4966961;28;20404;-62
2022/01/25 00:30:59;;;;;;;;;;;;;;;;;;4966471;28;20327;-62
2022/01/25 00:33:25;;;;;;;;;;;;;;;;;;4968839;28;19969;-62
2022/01/25 00:35:50;;;;;;;;;;;;;;;;;;4970878;28;19958;-62
2022/01/25 00:38:16;;;;;;;;;;;;;;;;;;4970051;28;20441;-62
2022/01/25 00:40:41;;;;;;;;;;;;;;;;;;4968338;28;20328;-62
2022/01/25 00:43:07;;;;;;;;;;;;;;;;;;4969644;28;19926;-62
2022/01/25 00:45:32;;;;;;;;;;;;;;;;;;4966690;28;19926;-62
2022/01/25 00:47:57;;;;;;;;;;;;;;;;;;4969032;28;19923;-62
2022/01/25 00:50:23;;;;;;;;;;;;;;;;;;4970438;28;20288;-62
2022/01/25 00:55:14;;;;;;;;;;;;;;;;;;4969362;28;19925;-62
2022/01/25 00:57:40;;;;;;;;;;;;;;;;;;4966118;28;19919;-61
2022/01/25 01:00:07;;;;;;;;;;;;;;;;;;4965616;28;19929;-61
2022/01/25 01:02:32;;;;;;;;;;;;;;;;;;4970767;28;19918;-61
2022/01/25 01:04:57;;;;;;;;;;;;;;;;;;4970152;28;19926;-62
2022/01/25 01:07:23;;;;;;;;;;;;;;;;;;4965270;28;19926;-62
2022/01/25 01:09:51;;;;;;;;;;;;;;;;;;4969701;28;19918;-61
2022/01/25 01:15:23;;;;;;;;;;;;;;;;;;4963651;28;20340;-61
2022/01/25 01:35:21;;;;;;;;;;;;;;;;;;4968650;28;19929;-62
2022/01/25 01:45:29;;;;;;;;;;;;;;;;;;4974932;28;20405;-62
2022/01/25 01:47:33;;;;;;;;;;;;;;;;;;4960964;28;19933;-61
2022/01/25 01:50:01;;;;;;;;;;;;;;;;;;4963284;28;19918;-61
2022/01/25 01:52:27;;;;;;;;;;;;;;;;;;4965070;28;19925;-61
2022/01/25 01:54:53;;;;;;;;;;;;;;;;;;4969608;28;19929;-61
2022/01/25 01:57:18;;;;;;;;;;;;;;;;;;4971046;28;19917;-61
2022/01/25 01:59:44;;;;;;;;;;;;;;;;;;4969854;28;19918;-62
2022/01/25 02:02:09;;;;;;;;;;;;;;;;;;4960864;28;20017;-61
2022/01/25 02:04:34;;;;;;;;;;;;;;;;;;4963852;28;19934;-61
2022/01/25 02:07:00;;;;;;;;;;;;;;;;;;4965643;28;19923;-62
2022/01/25 02:09:25;;;;;;;;;;;;;;;;;;4967752;28;19918;-61
2022/01/25 02:11:50;;;;;;;;;;;;;;;;;;4969840;28;20111;-61
2022/01/25 02:14:16;;;;;;;;;;;;;;;;;;4970891;28;20415;-61
2022/01/25 02:24:42;;;;;;;;;;;;;;;;;;4974129;28;19972;-66
2022/01/25 02:27:08;;;;;;;;;;;;;;;;;;4972313;28;20020;-62
2022/01/25 02:29:33;;;;;;;;;;;;;;;;;;4970232;28;20311;-61
2022/01/25 02:31:58;;;;;;;;;;;;;;;;;;4971133;28;19918;-62
2022/01/25 02:34:24;;;;;;;;;;;;;;;;;;4971211;28;19922;-62
2022/01/25 02:37:09;;;;;;;;;;;;;;;;;;4975224;28;19940;-61
2022/01/25 02:39:37;;;;;;;;;;;;;;;;;;4966928;28;19977;-61
2022/01/25 02:42:03;;;;;;;;;;;;;;;;;;4974397;28;19972;-62
2022/01/25 02:44:29;;;;;;;;;;;;;;;;;;4973101;28;19926;-61
2022/01/25 02:49:42;;;;;;;;;;;;;;;;;;4962415;28;20004;-63
2022/01/25 02:52:08;;;;;;;;;;;;;;;;;;4968334;28;20387;-62
2022/01/25 02:54:35;;;;;;;;;;;;;;;;;;4971737;28;20315;-60
2022/01/25 02:57:01;;;;;;;;;;;;;;;;;;4973186;28;20191;-62
2022/01/25 02:59:26;;;;;;;;;;;;;;;;;;4968236;28;19918;-62
2022/01/25 03:01:52;;;;;;;;;;;;;;;;;;4974052;28;19925;-61
2022/01/25 03:04:18;;;;;;;;;;;;;;;;;;4969435;28;19988;-61
2022/01/25 03:06:43;;;;;;;;;;;;;;;;;;4971726;28;19977;-62
2022/01/25 03:09:09;;;;;;;;;;;;;;;;;;4973547;28;19926;-62
2022/01/25 03:11:34;;;;;;;;;;;;;;;;;;4966722;28;19988;-62
2022/01/25 03:14:03;;;;;;;;;;;;;;;;;;4974567;28;19965;-62
2022/01/25 03:16:35;;;;;;;;;;;;;;;;;;4971834;28;20018;-62
2022/01/25 03:19:03;;;;;;;;;;;;;;;;;;4968835;28;19926;-61
2022/01/25 03:23:57;;;;;;;;;;;;;;;;;;4975253;28;19984;-62
2022/01/25 03:26:23;;;;;;;;;;;;;;;;;;4970284;28;20364;-61
2022/01/25 03:28:49;;;;;;;;;;;;;;;;;;4968727;28;19940;-62
2022/01/25 03:31:15;;;;;;;;;;;;;;;;;;4974165;28;19923;-61
2022/01/25 03:33:40;;;;;;;;;;;;;;;;;;4970598;28;20383;-61
2022/01/25 03:36:07;;;;;;;;;;;;;;;;;;4973614;28;19929;-61
2022/01/25 03:38:33;;;;;;;;;;;;;;;;;;4976709;28;20001;-62
2022/01/25 03:40:59;;;;;;;;;;;;;;;;;;4972700;28;19964;-61
2022/01/25 03:43:24;;;;;;;;;;;;;;;;;;4969943;28;19957;-60
2022/01/25 03:46:04;;;;;;;;;;;;;;;;;;4970176;28;19949;-62
2022/01/25 03:50:55;;;;;;;;;;;;;;;;;;4966052;28;19942;-62
2022/01/25 03:53:20;;;;;;;;;;;;;;;;;;4967594;28;19926;-62
2022/01/25 03:55:47;;;;;;;;;;;;;;;;;;4970691;28;20013;-62
2022/01/25 03:58:13;;;;;;;;;;;;;;;;;;4969461;28;20242;-62
2022/01/25 04:00:38;;;;;;;;;;;;;;;;;;4967904;28;20363;-62
2022/01/25 04:03:14;;;;;;;;;;;;;;;;;;4964692;28;19919;-62
2022/01/25 04:08:07;;;;;;;;;;;;;;;;;;4965720;28;20476;-62
2022/01/25 04:10:32;;;;;;;;;;;;;;;;;;4970350;28;19922;-60
2022/01/25 04:12:57;;;;;;;;;;;;;;;;;;4975095;28;20000;-61
2022/01/25 04:15:23;;;;;;;;;;;;;;;;;;4968032;28;19926;-62
2022/01/25 04:17:55;;;;;;;;;;;;;;;;;;4972958;28;20299;-60
2022/01/25 04:20:26;;;;;;;;;;;;;;;;;;4966541;28;20005;-61
2022/01/25 04:25:35;;;;;;;;;;;;;;;;;;4972694;28;20533;-61
2022/01/25 04:28:01;;;;;;;;;;;;;;;;;;4973219;28;19926;-60
2022/01/25 04:30:26;;;;;;;;;;;;;;;;;;4970932;28;19919;-60
2022/01/25 04:33:02;;;;;;;;;;;;;;;;;;4971883;28;20335;-61
2022/01/25 04:49:28;;;;;;;;;;;;;;;;;;4929759;29;20337;-62
2022/01/25 04:52:04;;;;;;;;;;;;;;;;;;4961583;28;19926;-62
2022/01/25 04:59:40;;;;;;;;;;;;;;;;;;4967954;28;20211;-61
2022/01/25 05:02:48;;;;;;;;;;;;;;;;;;4972084;28;19966;-62
2022/01/25 05:05:04;;;;;;;;;;;;;;;;;;4967145;28;19921;-62
2022/01/25 05:08:19;;;;;;;;;;;;;;;;;;4963069;28;19926;-61
2022/01/25 05:10:18;;;;;;;;;;;;;;;;;;4964785;28;19980;-62
2022/01/25 05:18:17;;;;;;;;;;;;;;;;;;4944742;28;19919;-61
2022/01/25 05:23:27;;;;;;;;;;;;;;;;;;4970157;28;19925;-62
2022/01/25 05:25:52;;;;;;;;;;;;;;;;;;4975421;28;19917;-61
2022/01/25 05:28:18;;;;;;;;;;;;;;;;;;4972672;28;19954;-62
2022/01/25 05:30:43;;;;;;;;;;;;;;;;;;4968958;28;20348;-62
2022/01/25 05:33:08;;;;;;;;;;;;;;;;;;4967943;28;19919;-61
2022/01/25 05:35:34;;;;;;;;;;;;;;;;;;4964571;28;19969;-60
2022/01/25 05:37:59;;;;;;;;;;;;;;;;;;4973761;28;19922;-62
2022/01/25 05:46:35;;;;;;;;;;;;;;;;;;4969811;28;20427;-62
2022/01/25 05:48:25;;;;;;;;;;;;;;;;;;4960596;28;19949;-61
2022/01/25 05:50:51;;;;;;;;;;;;;;;;;;4969040;28;19922;-61
2022/01/25 05:53:17;;;;;;;;;;;;;;;;;;4971640;28;20366;-61
2022/01/25 05:55:42;;;;;;;;;;;;;;;;;;4966708;28;20025;-62
2022/01/25 05:58:08;;;;;;;;;;;;;;;;;;4968437;28;20038;-62
2022/01/25 06:00:33;;;;;;;;;;;;;;;;;;4971671;28;19976;-62
2022/01/25 06:03:01;;;;;;;;;;;;;;;;;;4970642;28;19972;-62
2022/01/25 06:05:26;;;;;;;;;;;;;;;;;;4970582;28;19957;-62
2022/01/25 06:07:52;;;;;;;;;;;;;;;;;;4962621;28;19977;-62
2022/01/25 06:10:17;;;;;;;;;;;;;;;;;;4968630;28;20126;-61
2022/01/25 06:12:44;;;;;;;;;;;;;;;;;;4963362;28;20339;-61
2022/01/25 06:15:10;;;;;;;;;;;;;;;;;;4973081;28;20387;-59
2022/01/25 06:17:35;;;;;;;;;;;;;;;;;;4972151;28;19925;-60
2022/01/25 06:20:01;;;;;;;;;;;;;;;;;;4971508;28;19934;-60
2022/01/25 06:22:26;;;;;;;;;;;;;;;;;;4971314;28;20159;-60
2022/01/25 06:24:52;;;;;;;;;;;;;;;;;;4977544;28;20024;-60
2022/01/25 06:27:18;;;;;;;;;;;;;;;;;;4966072;28;19923;-60
2022/01/25 06:29:44;;;;;;;;;;;;;;;;;;4967419;28;19918;-61
2022/01/25 06:32:10;;;;;;;;;;;;;;;;;;4973214;28;19988;-61
2022/01/25 06:34:35;;;;;;;;;;;;;;;;;;4974677;28;20276;-61
2022/01/25 06:37:00;;;;;;;;;;;;;;;;;;4977793;28;19914;-60
2022/01/25 06:39:26;;;;;;;;;;;;;;;;;;4965996;28;20410;-60
2022/01/25 06:41:51;;;;;;;;;;;;;;;;;;4970095;28;19998;-60
2022/01/25 06:44:17;;;;;;;;;;;;;;;;;;4963909;28;20431;-61
2022/01/25 06:46:42;;;;;;;;;;;;;;;;;;4959434;28;19937;-62
2022/01/25 06:49:08;;;;;;;;;;;;;;;;;;4960511;28;20017;-61
2022/01/25 06:51:33;;;;;;;;;;;;;;;;;;4971829;28;20086;-61
2022/01/25 06:53:59;;;;;;;;;;;;;;;;;;4971747;28;20376;-61
2022/01/25 06:56:24;;;;;;;;;;;;;;;;;;4974211;28;20383;-61
2022/01/25 06:58:49;;;;;;;;;;;;;;;;;;4969887;28;19953;-61
2022/01/25 07:01:17;;;;;;;;;;;;;;;;;;4969279;28;19922;-61
2022/01/25 07:03:42;;;;;;;;;;;;;;;;;;4970697;28;20368;-61
2022/01/25 07:06:08;;;;;;;;;;;;;;;;;;4967190;28;20275;-61
2022/01/25 07:08:33;;;;;;;;;;;;;;;;;;4968895;28;19926;-60
2022/01/25 07:10:58;;;;;;;;;;;;;;;;;;4971957;28;19918;-61
2022/01/25 07:13:25;;;;;;;;;;;;;;;;;;4972581;28;19972;-61
2022/01/25 07:15:50;;;;;;;;;;;;;;;;;;4974608;28;20406;-61
2022/01/25 07:18:15;;;;;;;;;;;;;;;;;;4974996;28;19914;-61
2022/01/25 07:20:41;;;;;;;;;;;;;;;;;;4969065;28;19926;-61
2022/01/25 07:23:06;;;;;;;;;;;;;;;;;;4965798;28;19922;-61
2022/01/25 07:25:31;;;;;;;;;;;;;;;;;;4967599;28;19957;-61
2022/01/25 07:27:57;;;;;;;;;;;;;;;;;;4963637;28;20021;-62
2022/01/25 07:30:22;;;;;;;;;;;;;;;;;;4968655;28;19982;-61
2022/01/25 07:32:47;;;;;;;;;;;;;;;;;;4965674;28;20012;-61
2022/01/25 07:35:13;;;;;;;;;;;;;;;;;;4973232;28;19933;-61
2022/01/25 07:37:38;;;;;;;;;;;;;;;;;;4961315;28;20024;-61
2022/01/25 07:40:04;;;;;;;;;;;;;;;;;;4967773;28;19925;-61
2022/01/25 07:42:33;;;;;;;;;;;;;;;;;;4964429;28;20122;-61
2022/01/25 07:44:58;;;;;;;;;;;;;;;;;;4964836;28;20358;-61
2022/01/25 07:47:24;;;;;;;;;;;;;;;;;;4964638;28;20009;-61
2022/01/25 07:49:49;;;;;;;;;;;;;;;;;;4966248;28;19969;-61
2022/01/25 07:52:14;;;;;;;;;;;;;;;;;;4968252;28;20264;-61
2022/01/25 07:54:42;;;;;;;;;;;;;;;;;;4965984;28;19937;-61
2022/01/25 07:57:07;;;;;;;;;;;;;;;;;;4969823;28;19933;-61
2022/01/25 07:59:32;;;;;;;;;;;;;;;;;;4966654;28;19973;-62
2022/01/25 08:01:57;;;;;;;;;;;;;;;;;;4965146;28;19914;-61
2022/01/25 08:04:23;;;;;;;;;;;;;;;;;;4969543;28;19976;-60
2022/01/25 08:06:48;;;;;;;;;;;;;;;;;;4966550;28;20025;-60
2022/01/25 08:09:14;;;;;;;;;;;;;;;;;;4970459;28;19918;-60
2022/01/25 08:11:40;;;;;;;;;;;;;;;;;;4965495;28;20005;-59
2022/01/25 08:14:13;;;;;;;;;;;;;;;;;;4966455;28;20028;-60
2022/01/25 08:16:40;;;;;;;;;;;;;;;;;;4961303;28;19918;-60
2022/01/25 08:19:05;;;;;;;;;;;;;;;;;;4965271;28;19922;-60
2022/01/25 08:21:31;;;;;;;;;;;;;;;;;;4965256;28;20418;-60
2022/01/25 08:23:56;;;;;;;;;;;;;;;;;;4971812;28;19973;-60
2022/01/25 08:26:21;;;;;;;;;;;;;;;;;;4965075;28;19930;-60
2022/01/25 08:28:46;;;;;;;;;;;;;;;;;;4969804;28;19918;-60
2022/01/25 08:31:12;;;;;;;;;;;;;;;;;;4968285;28;20381;-60
2022/01/25 08:33:39;;;;;;;;;;;;;;;;;;4966679;28;20383;-60
2022/01/25 08:36:04;;;;;;;;;;;;;;;;;;4966625;28;19964;-61
2022/01/25 08:38:30;;;;;;;;;;;;;;;;;;4970674;28;19926;-60
2022/01/25 08:40:55;;;;;;;;;;;;;;;;;;4965188;28;19922;-60
2022/01/25 08:43:20;;;;;;;;;;;;;;;;;;4963182;28;19925;-61
2022/01/25 08:45:46;;;;;;;;;;;;;;;;;;4963110;28;19929;-61
2022/01/25 08:48:11;;;;;;;;;;;;;;;;;;4962248;28;19926;-61
2022/01/25 08:50:37;;;;;;;;;;;;;;;;;;4965931;28;19926;-61
2022/01/25 08:53:02;;;;;;;;;;;;;;;;;;4963811;28;19922;-61
2022/01/25 08:55:28;;;;;;;;;;;;;;;;;;4961302;28;20289;-61
2022/01/25 08:57:53;;;;;;;;;;;;;;;;;;4967179;28;19922;-61
2022/01/25 09:00:18;;;;;;;;;;;;;;;;;;4968256;28;20371;-61
2022/01/25 09:02:44;;;;;;;;;;;;;;;;;;4967116;28;19961;-61
2022/01/25 09:05:09;;;;;;;;;;;;;;;;;;4968309;28;19997;-61
2022/01/25 09:07:35;;;;;;;;;;;;;;;;;;4963857;28;19922;-60
2022/01/25 09:10:00;;;;;;;;;;;;;;;;;;4968511;28;20388;-61
2022/01/25 09:12:27;;;;;;;;;;;;;;;;;;4973070;28;19961;-60
2022/01/25 09:14:54;;;;;;;;;;;;;;;;;;4963070;28;21650;-60
2022/01/25 09:17:19;;;;;;;;;;;;;;;;;;4968530;28;19937;-60
2022/01/25 09:19:45;;;;;;;;;;;;;;;;;;4968171;28;19919;-60
2022/01/25 09:22:10;;;;;;;;;;;;;;;;;;4970167;28;20335;-60
2022/01/25 09:24:37;;;;;;;;;;;;;;;;;;4967550;28;19918;-60
2022/01/25 09:27:04;;;;;;;;;;;;;;;;;;4965368;28;19926;-60
2022/01/25 09:29:30;;;;;;;;;;;;;;;;;;4964009;28;20006;-60
2022/01/25 09:31:55;;;;;;;;;;;;;;;;;;4963858;28;19922;-60
2022/01/25 09:34:23;;;;;;;;;;;;;;;;;;4960120;28;19930;-60
2022/01/25 09:36:49;;;;;;;;;;;;;;;;;;4959113;28;19926;-61
2022/01/25 09:39:14;;;;;;;;;;;;;;;;;;4959577;28;20012;-60
2022/01/25 09:41:40;;;;;;;;;;;;;;;;;;4958587;28;20376;-61
2022/01/25 09:44:06;;;;;;;;;;;;;;;;;;4959640;28;20174;-60
2022/01/25 09:46:31;;;;;;;;;;;;;;;;;;4957962;28;20360;-61
2022/01/25 09:48:57;;;;;;;;;;;;;;;;;;4959851;28;19998;-61
2022/01/25 09:51:23;;;;;;;;;;;;;;;;;;4958375;28;20392;-61
2022/01/25 09:53:49;;;;;;;;;;;;;;;;;;4959162;28;19934;-61
2022/01/25 09:56:14;;;;;;;;;;;;;;;;;;4956513;28;20014;-61
2022/01/25 09:58:41;;;;;;;;;;;;;;;;;;4959885;28;19926;-61
2022/01/25 10:01:07;;;;;;;;;;;;;;;;;;4957612;28;19929;-61
2022/01/25 10:03:38;;;;;;;;;;;;;;;;;;4957856;28;20021;-61
2022/01/25 10:06:10;;;;;;;;;;;;;;;;;;4966091;28;19914;-61
2022/01/25 10:08:36;;;;;;;;;;;;;;;;;;4959818;28;20272;-60
2022/01/25 10:11:12;;;;;;;;;;;;;;;;;;4966400;28;19921;-61
2022/01/25 10:13:38;;;;;;;;;;;;;;;;;;4965107;28;20273;-61
2022/01/25 10:16:04;;;;;;;;;;;;;;;;;;4962788;28;19926;-62
2022/01/25 10:18:58;;;;;;;;;;;;;;;;;;4968478;28;19914;-62
2022/01/25 10:21:24;;;;;;;;;;;;;;;;;;4964910;28;19918;-61
2022/01/25 10:23:59;;;;;;;;;;;;;;;;;;4964466;28;19993;-62
2022/01/25 10:26:24;;;;;;;;;;;;;;;;;;4963218;28;19937;-61
2022/01/25 10:28:50;;;;;;;;;;;;;;;;;;4967324;28;19922;-62
2022/01/25 10:31:16;;;;;;;;;;;;;;;;;;4965368;28;20277;-62
2022/01/25 10:33:50;;;;;;;;;;;;;;;;;;4965338;28;19926;-62
2022/01/25 10:36:19;;;;;;;;;;;;;;;;;;4959050;28;19918;-61
2022/01/25 10:38:45;;;;;;;;;;;;;;;;;;4958089;28;20796;-62
2022/01/25 10:41:12;;;;;;;;;;;;;;;;;;4959268;28;19929;-62
2022/01/25 10:43:39;;;;;;;;;;;;;;;;;;4953624;28;20016;-61
2022/01/25 10:46:16;;;;;;;;;;;;;;;;;;4962251;28;19926;-62
2022/01/25 10:48:43;;;;;;;;;;;;;;;;;;4957441;28;19957;-61
2022/01/25 10:51:10;;;;;;;;;;;;;;;;;;4960019;28;19918;-61
2022/01/25 10:53:36;;;;;;;;;;;;;;;;;;4957504;28;19937;-60
2022/01/25 10:56:03;;;;;;;;;;;;;;;;;;4958127;28;20125;-60
2022/01/25 10:58:28;;;;;;;;;;;;;;;;;;4958732;28;22372;-61
2022/01/25 11:00:54;;;;;;;;;;;;;;;;;;4960435;28;19972;-62
2022/01/25 11:03:29;;;;;;;;;;;;;;;;;;4961757;28;20308;-62
2022/01/25 11:05:55;;;;;;;;;;;;;;;;;;4961473;28;20029;-62
2022/01/25 11:08:21;;;;;;;;;;;;;;;;;;4961207;28;20379;-61
2022/01/25 11:10:57;;;;;;;;;;;;;;;;;;4958926;28;19918;-62
2022/01/25 11:15:54;;;;;;;;;;;;;;;;;;4960734;28;20376;-62
2022/01/25 11:18:20;;;;;;;;;;;;;;;;;;4961095;28;19940;-62
2022/01/25 11:20:46;;;;;;;;;;;;;;;;;;4960841;28;20354;-62
2022/01/25 11:23:11;;;;;;;;;;;;;;;;;;4961262;28;19933;-62
2022/01/25 11:25:37;;;;;;;;;;;;;;;;;;4961187;28;19937;-62
2022/01/25 11:28:03;;;;;;;;;;;;;;;;;;4959809;28;20411;-62
2022/01/25 11:30:29;;;;;;;;;;;;;;;;;;4960665;28;19965;-62
2022/01/25 11:32:54;;;;;;;;;;;;;;;;;;4958920;28;19926;-62
2022/01/25 11:35:23;;;;;;;;;;;;;;;;;;4962150;28;19952;-62
2022/01/25 11:37:50;;;;;;;;;;;;;;;;;;4962718;28;19922;-62
2022/01/25 11:40:38;;;;;;;;;;;;;;;;;;4962329;28;20017;-62
2022/01/25 11:43:07;;;;;;;;;;;;;;;;;;4960191;28;19926;-65
2022/01/25 11:45:34;;;;;;;;;;;;;;;;;;4959723;28;19926;-63
2022/01/25 11:48:00;;;;;;;;;;;;;;;;;;4963239;28;20431;-63
2022/01/25 11:50:33;;;;;;;;;;;;;;;;;;4961201;28;19921;-63
2022/01/25 11:53:05;;;;;;;;;;;;;;;;;;4960212;28;19921;-63
2022/01/25 11:55:46;;;;;;;;;;;;;;;;;;4962736;28;19926;-63
2022/01/25 11:58:16;;;;;;;;;;;;;;;;;;4962360;28;20447;-63
2022/01/25 12:00:46;;;;;;;;;;;;;;;;;;4965808;28;19926;-63
2022/01/25 12:03:30;;;;;;;;;;;;;;;;;;4963040;28;19925;-63
2022/01/25 12:06:04;;;;;;;;;;;;;;;;;;4961704;28;20009;-61
2022/01/25 12:08:49;;;;;;;;;;;;;;;;;;4963814;28;19925;-61
2022/01/25 12:11:24;;;;;;;;;;;;;;;;;;4961233;28;20205;-61
2022/01/25 12:14:09;;;;;;;;;;;;;;;;;;4959733;28;19925;-62
2022/01/25 12:16:37;;;;;;;;;;;;;;;;;;4961041;28;19933;-62
2022/01/25 12:19:05;;;;;;;;;;;;;;;;;;4965498;28;20637;-62
2022/01/25 12:21:47;;;;;;;;;;;;;;;;;;4961293;28;19933;-62
2022/01/25 12:24:16;;;;;;;;;;;;;;;;;;4960948;28;19949;-64
2022/01/25 12:26:55;;;;;;;;;;;;;;;;;;4958636;28;20380;-63
2022/01/25 12:29:31;;;;;;;;;;;;;;;;;;4962741;28;19925;-62
2022/01/25 12:32:14;;;;;;;;;;;;;;;;;;4960311;28;19933;-63
2022/01/25 12:34:55;;;;;;;;;;;;;;;;;;4961058;28;20056;-63
2022/01/25 12:37:39;;;;;;;;;;;;;;;;;;4958654;28;20389;-63
2022/01/25 12:40:24;;;;;;;;;;;;;;;;;;4960478;28;19974;-63
2022/01/25 12:42:50;;;;;;;;;;;;;;;;;;4958831;28;19926;-63
2022/01/25 12:45:22;;;;;;;;;;;;;;;;;;4959634;28;19984;-62
2022/01/25 12:47:51;;;;;;;;;;;;;;;;;;4960439;28;20025;-63
2022/01/25 12:50:17;;;;;;;;;;;;;;;;;;4957043;28;19929;-63
2022/01/25 12:52:42;;;;;;;;;;;;;;;;;;4959237;28;19926;-63
2022/01/25 12:55:08;;;;;;;;;;;;;;;;;;4962087;28;19918;-63
2022/01/25 12:57:34;;;;;;;;;;;;;;;;;;4960025;28;19976;-63
2022/01/25 12:59:59;;;;;;;;;;;;;;;;;;4960437;28;19930;-63
2022/01/25 13:02:27;;;;;;;;;;;;;;;;;;4958259;28;19925;-63
2022/01/25 13:04:52;;;;;;;;;;;;;;;;;;4960603;28;20438;-63
2022/01/25 13:07:18;;;;;;;;;;;;;;;;;;4958608;28;19922;-63
2022/01/25 13:09:46;;;;;;;;;;;;;;;;;;4960204;28;20332;-63
2022/01/25 13:12:23;;;;;;;;;;;;;;;;;;4959566;28;20474;-63
2022/01/25 13:15:04;;;;;;;;;;;;;;;;;;4959738;28;19922;-63
2022/01/25 13:17:31;;;;;;;;;;;;;;;;;;4961869;28;20431;-63
2022/01/25 13:20:00;;;;;;;;;;;;;;;;;;4961131;28;19925;-63
2022/01/25 13:22:33;;;;;;;;;;;;;;;;;;4958531;28;19929;-61
2022/01/25 13:27:35;;;;;;;;;;;;;;;;;;4959990;28;19926;-61
2022/01/25 13:32:46;;;;;;;;;;;;;;;;;;4963067;28;19965;-61
2022/01/25 13:37:43;;;;;;;;;;;;;;;;;;4960117;28;19926;-64
2022/01/25 13:40:10;;;;;;;;;;;;;;;;;;4962074;28;19922;-64
2022/01/25 13:42:56;;;;;;;;;;;;;;;;;;4958379;28;19924;-64
2022/01/25 13:48:06;;;;;;;;;;;;;;;;;;4960179;28;19941;-64
2022/01/25 13:50:33;;;;;;;;;;;;;;;;;;4961260;28;20606;-63
2022/01/25 13:52:59;;;;;;;;;;;;;;;;;;4959195;28;19918;-64
2022/01/25 13:55:25;;;;;;;;;;;;;;;;;;4962158;28;19918;-63
2022/01/25 13:57:50;;;;;;;;;;;;;;;;;;4960050;28;19926;-64
2022/01/25 14:00:16;;;;;;;;;;;;;;;;;;4961801;28;19922;-64
2022/01/25 14:02:41;;;;;;;;;;;;;;;;;;4958745;28;20242;-63
2022/01/25 14:05:07;;;;;;;;;;;;;;;;;;4961396;28;19948;-63
2022/01/25 14:07:36;;;;;;;;;;;;;;;;;;4958397;28;20033;-63
2022/01/25 14:10:06;;;;;;;;;;;;;;;;;;4963316;28;20405;-63
2022/01/25 14:23:28;;;;;;;;;;;;;;;;;;4959102;28;19973;-63
2022/01/25 14:26:02;;;;;;;;;;;;;;;;;;4962448;28;19953;-64
2022/01/25 14:28:27;;;;;;;;;;;;;;;;;;4961550;28;20309;-64
2022/01/25 14:30:54;;;;;;;;;;;;;;;;;;4961164;28;19933;-64
2022/01/25 14:33:22;;;;;;;;;;;;;;;;;;4959266;28;20176;-63
2022/01/25 14:35:47;;;;;;;;;;;;;;;;;;4962329;28;20271;-63
2022/01/25 14:38:19;;;;;;;;;;;;;;;;;;4963180;28;19928;-64
2022/01/25 14:41:00;;;;;;;;;;;;;;;;;;4963347;28;19918;-64
2022/01/25 14:43:30;;;;;;;;;;;;;;;;;;4961515;28;20469;-64
2022/01/25 14:46:05;;;;;;;;;;;;;;;;;;4966966;28;20008;-63
2022/01/25 14:48:35;;;;;;;;;;;;;;;;;;4961445;28;20617;-63
2022/01/25 14:51:00;;;;;;;;;;;;;;;;;;4967808;28;19961;-64
2022/01/25 14:53:26;;;;;;;;;;;;;;;;;;4967779;28;19956;-64
2022/01/25 14:55:52;;;;;;;;;;;;;;;;;;4964212;28;19933;-63
2022/01/25 15:00:48;;;;;;;;;;;;;;;;;;4969109;28;19922;-64
2022/01/25 15:03:13;;;;;;;;;;;;;;;;;;4965321;28;19921;-63
2022/01/25 15:05:38;;;;;;;;;;;;;;;;;;4966436;28;20237;-63
2022/01/25 15:08:04;;;;;;;;;;;;;;;;;;4966364;28;19922;-62
2022/01/25 15:10:32;;;;;;;;;;;;;;;;;;4971194;28;19921;-64
2022/01/25 15:12:57;;;;;;;;;;;;;;;;;;4968558;28;19940;-63
2022/01/25 15:15:45;;;;;;;;;;;;;;;;;;4969266;28;20366;-64
2022/01/25 15:18:11;;;;;;;;;;;;;;;;;;4966101;28;19922;-63
2022/01/25 15:20:36;;;;;;;;;;;;;;;;;;4968886;28;19922;-63
2022/01/25 15:23:03;;;;;;;;;;;;;;;;;;4961925;28;19926;-64
2022/01/25 15:25:28;;;;;;;;;;;;;;;;;;4969837;28;20326;-63
2022/01/25 15:27:55;;;;;;;;;;;;;;;;;;4965417;28;19922;-63
2022/01/25 15:30:20;;;;;;;;;;;;;;;;;;4967826;28;19918;-63
2022/01/25 15:32:46;;;;;;;;;;;;;;;;;;4968211;28;20359;-64
2022/01/25 15:35:11;;;;;;;;;;;;;;;;;;4970393;28;19997;-63
2022/01/25 15:37:37;;;;;;;;;;;;;;;;;;4970925;28;19945;-62
2022/01/25 15:40:03;;;;;;;;;;;;;;;;;;4968578;28;19962;-63
2022/01/25 15:42:30;;;;;;;;;;;;;;;;;;4967323;28;19945;-63
2022/01/25 15:44:56;;;;;;;;;;;;;;;;;;4964320;28;19996;-63
2022/01/25 15:47:26;;;;;;;;;;;;;;;;;;4965708;28;19922;-63
2022/01/25 15:49:51;;;;;;;;;;;;;;;;;;4966521;28;19914;-62
2022/01/25 15:52:17;;;;;;;;;;;;;;;;;;4966071;28;19926;-63
2022/01/25 15:54:42;;;;;;;;;;;;;;;;;;4963476;28;19980;-63
2022/01/25 15:57:08;;;;;;;;;;;;;;;;;;4961672;28;19930;-64
2022/01/25 15:59:33;;;;;;;;;;;;;;;;;;4969512;28;19957;-62
2022/01/25 16:02:09;;;;;;;;;;;;;;;;;;4963864;28;19918;-62
2022/01/25 16:04:36;;;;;;;;;;;;;;;;;;4964623;28;19922;-62
2022/01/25 16:07:01;;;;;;;;;;;;;;;;;;4965870;28;19922;-62
2022/01/25 16:09:27;;;;;;;;;;;;;;;;;;4968274;28;20307;-63
2022/01/25 16:11:52;;;;;;;;;;;;;;;;;;4965277;28;21450;-62
2022/01/25 16:14:17;;;;;;;;;;;;;;;;;;4967745;28;19952;-62
2022/01/25 16:16:44;;;;;;;;;;;;;;;;;;4961448;28;19926;-63
2022/01/25 16:19:09;;;;;;;;;;;;;;;;;;4969758;28;20072;-62
2022/01/25 16:21:35;;;;;;;;;;;;;;;;;;4964552;28;20009;-62
2022/01/25 16:24:00;;;;;;;;;;;;;;;;;;4968970;28;19929;-62
2022/01/25 16:26:27;;;;;;;;;;;;;;;;;;4969082;28;19981;-63
2022/01/25 16:28:52;;;;;;;;;;;;;;;;;;4969050;28;19922;-62
2022/01/25 16:31:32;;;;;;;;;;;;;;;;;;4967169;28;19941;-61
2022/01/25 16:33:59;;;;;;;;;;;;;;;;;;4966893;28;19918;-62
2022/01/25 16:36:24;;;;;;;;;;;;;;;;;;4966657;28;20321;-62
2022/01/25 16:38:50;;;;;;;;;;;;;;;;;;4967640;28;19945;-62
2022/01/25 16:41:16;;;;;;;;;;;;;;;;;;4962017;28;19929;-61
2022/01/25 16:43:42;;;;;;;;;;;;;;;;;;4968161;28;20214;-62
2022/01/25 16:46:08;;;;;;;;;;;;;;;;;;4967909;28;19926;-61
2022/01/25 16:48:33;;;;;;;;;;;;;;;;;;4970200;28;19922;-61
2022/01/25 16:50:59;;;;;;;;;;;;;;;;;;4964632;28;19921;-62
2022/01/25 16:53:24;;;;;;;;;;;;;;;;;;4963760;28;19961;-61
2022/01/25 16:55:50;;;;;;;;;;;;;;;;;;4966804;28;19918;-62
2022/01/25 16:58:15;;;;;;;;;;;;;;;;;;4962371;28;20455;-65
2022/01/25 17:00:42;;;;;;;;;;;;;;;;;;4965535;28;19918;-63
2022/01/25 17:03:09;;;;;;;;;;;;;;;;;;4966023;28;20280;-64
2022/01/25 17:05:34;;;;;;;;;;;;;;;;;;4969159;28;20310;-61
2022/01/25 17:08:00;;;;;;;;;;;;;;;;;;4966240;28;19922;-61
2022/01/25 17:10:25;;;;;;;;;;;;;;;;;;4967173;28;19918;-62
2022/01/25 17:12:51;;;;;;;;;;;;;;;;;;4964991;28;19918;-61
2022/01/25 17:15:17;;;;;;;;;;;;;;;;;;4967564;28;19922;-64
2022/01/25 17:17:43;;;;;;;;;;;;;;;;;;4965072;28;20402;-65
2022/01/25 17:20:08;;;;;;;;;;;;;;;;;;4964239;28;19995;-64
2022/01/25 17:22:34;;;;;;;;;;;;;;;;;;4965727;28;19918;-61
2022/01/25 17:24:59;;;;;;;;;;;;;;;;;;4966396;28;20442;-64
2022/01/25 17:27:25;;;;;;;;;;;;;;;;;;4963750;28;19922;-65
2022/01/25 17:29:51;;;;;;;;;;;;;;;;;;4967607;28;19926;-64
2022/01/25 17:32:17;;;;;;;;;;;;;;;;;;4968441;28;19918;-62
2022/01/25 17:34:42;;;;;;;;;;;;;;;;;;4962996;28;19980;-61
2022/01/25 17:37:08;;;;;;;;;;;;;;;;;;4967882;28;20352;-61
2022/01/25 17:39:33;;;;;;;;;;;;;;;;;;4964704;28;19918;-64
2022/01/25 17:41:59;;;;;;;;;;;;;;;;;;4965074;28;19940;-64
2022/01/25 17:44:25;;;;;;;;;;;;;;;;;;4966786;28;19918;-62
2022/01/25 17:46:50;;;;;;;;;;;;;;;;;;4965659;28;20012;-61
2022/01/25 17:49:16;;;;;;;;;;;;;;;;;;4965718;28;20064;-63
2022/01/25 17:51:41;;;;;;;;;;;;;;;;;;4966457;28;19926;-60
2022/01/25 17:54:08;;;;;;;;;;;;;;;;;;4966032;28;20029;-62
2022/01/25 17:56:33;;;;;;;;;;;;;;;;;;4963690;28;19925;-62
2022/01/25 17:58:59;;;;;;;;;;;;;;;;;;4967943;28;19926;-62
2022/01/25 18:01:25;;;;;;;;;;;;;;;;;;4968134;28;20410;-62
2022/01/25 18:03:51;;;;;;;;;;;;;;;;;;4969194;28;19975;-60
2022/01/25 18:06:17;;;;;;;;;;;;;;;;;;4969067;28;19937;-61
2022/01/25 18:08:43;;;;;;;;;;;;;;;;;;4966242;28;20058;-61
2022/01/25 18:11:08;;;;;;;;;;;;;;;;;;4967197;28;20346;-61
2022/01/25 18:13:34;;;;;;;;;;;;;;;;;;4968262;28;19922;-62
2022/01/25 18:16:00;;;;;;;;;;;;;;;;;;4970319;28;19919;-62
2022/01/25 18:18:25;;;;;;;;;;;;;;;;;;4972776;28;20372;-62
2022/01/25 18:20:51;;;;;;;;;;;;;;;;;;4972928;28;19977;-62
2022/01/25 18:23:21;;;;;;;;;;;;;;;;;;4971474;28;19937;-61
2022/01/25 18:28:19;;;;;;;;;;;;;;;;;;4971212;28;19930;-63
2022/01/25 18:30:45;;;;;;;;;;;;;;;;;;4969801;28;20009;-63
2022/01/25 18:33:11;;;;;;;;;;;;;;;;;;4971201;28;20016;-63
2022/01/25 18:35:40;;;;;;;;;;;;;;;;;;4972268;28;20392;-63
2022/01/25 18:38:05;;;;;;;;;;;;;;;;;;4971923;28;19929;-62
2022/01/25 18:40:31;;;;;;;;;;;;;;;;;;4970384;28;19918;-63
2022/01/25 18:42:56;;;;;;;;;;;;;;;;;;4968749;28;19918;-63
2022/01/25 18:45:22;;;;;;;;;;;;;;;;;;4969022;28;19928;-63
2022/01/25 18:47:48;;;;;;;;;;;;;;;;;;4970000;28;20072;-62
2022/01/25 18:50:13;;;;;;;;;;;;;;;;;;4970808;28;20311;-63
2022/01/25 18:52:39;;;;;;;;;;;;;;;;;;4962532;28;19980;-62
2022/01/25 18:55:04;;;;;;;;;;;;;;;;;;4964283;28;19965;-61
2022/01/25 18:57:30;;;;;;;;;;;;;;;;;;4970135;28;19925;-61
2022/01/25 18:59:56;;;;;;;;;;;;;;;;;;4971184;28;19972;-61
2022/01/25 19:02:34;;;;;;;;;;;;;;;;;;4965166;28;19918;-61
2022/01/25 19:05:00;;;;;;;;;;;;;;;;;;4967598;28;19918;-61